sensor_id;sensor_type;location;lat;lon;timestamp;temperature;humidity
27128;DHT22;14660;49.008;8.390;2022-07-23T00:01:33;26.10;99.90
27128;DHT22;14660;49.008;8.390;2022-07-23T00:04:00;26.10;99.90
27128;DHT22;14660;49.008;8.390;2022-07-23T00:06:27;26.10;99.90
27128;DHT22;14660;49.008;8.390;2022-07-23T00:08:54;26.00;99.90
27128;DHT22;14660;49.008;8.390;2022-07-23T00:11:21;26.00;99.90
27128;DHT22;14660;49.008;8.390;2022-07-23T00:13:49;26.00;99.90
27128;DHT22;14660;49.008;8.390;2022-07-23T00:16:16;26.00;99.90
27128;DHT22;14660;49.008;8.390;2022-07-23T00:18:43;25.90;99.90
27128;DHT22;14660;49.008;8.390;2022-07-23T00:21:10;25.90;99.90
27128;DHT22;14660;49.008;8.390;2022-07-23T00:23:37;25.90;99.90
27128;DHT22;14660;49.008;8.390;2022-07-23T00:26:04;25.90;99.90
27128;DHT22;14660;49.008;8.390;2022-07-23T00:28:34;25.80;99.90
27128;DHT22;14660;49.008;8.390;2022-07-23T00:31:01;25.80;99.90
27128;DHT22;14660;49.008;8.390;2022-07-23T00:33:28;25.80;99.90
27128;DHT22;14660;49.008;8.390;2022-07-23T00:35:55;25.80;99.90
27128;DHT22;14660;49.008;8.390;2022-07-23T00:38:22;25.80;99.90
27128;DHT22;14660;49.008;8.390;2022-07-23T00:40:49;25.70;99.90
27128;DHT22;14660;49.008;8.390;2022-07-23T00:43:15;25.70;99.90
27128;DHT22;14660;49.008;8.390;2022-07-23T00:45:42;25.70;99.90
27128;DHT22;14660;49.008;8.390;2022-07-23T00:48:09;25.70;99.90
27128;DHT22;14660;49.008;8.390;2022-07-23T00:50:36;25.60;99.90
27128;DHT22;14660;49.008;8.390;2022-07-23T00:53:04;25.60;99.90
27128;DHT22;14660;49.008;8.390;2022-07-23T00:55:31;25.60;99.90
27128;DHT22;14660;49.008;8.390;2022-07-23T00:57:59;25.60;99.90
27128;DHT22;14660;49.008;8.390;2022-07-23T01:00:27;25.50;99.90
27128;DHT22;14660;49.008;8.390;2022-07-23T01:02:54;25.50;99.90
27128;DHT22;14660;49.008;8.390;2022-07-23T01:05:21;25.50;99.90
27128;DHT22;14660;49.008;8.390;2022-07-23T01:07:52;25.40;99.90
27128;DHT22;14660;49.008;8.390;2022-07-23T01:10:19;25.40;99.90
27128;DHT22;14660;49.008;8.390;2022-07-23T01:13:04;25.30;99.90
27128;DHT22;14660;49.008;8.390;2022-07-23T01:15:33;25.30;99.90
27128;DHT22;14660;49.008;8.390;2022-07-23T01:18:01;25.30;99.90
27128;DHT22;14660;49.008;8.390;2022-07-23T01:20:27;25.30;99.90
27128;DHT22;14660;49.008;8.390;2022-07-23T01:22:55;25.20;99.90
27128;DHT22;14660;49.008;8.390;2022-07-23T01:25:22;25.30;99.90
27128;DHT22;14660;49.008;8.390;2022-07-23T01:27:50;25.20;99.90
27128;DHT22;14660;49.008;8.390;2022-07-23T01:30:18;25.20;99.90
27128;DHT22;14660;49.008;8.390;2022-07-23T01:32:45;25.30;99.90
27128;DHT22;14660;49.008;8.390;2022-07-23T01:35:13;25.20;99.90
27128;DHT22;14660;49.008;8.390;2022-07-23T01:37:40;25.20;99.90
27128;DHT22;14660;49.008;8.390;2022-07-23T01:40:06;25.20;99.90
27128;DHT22;14660;49.008;8.390;2022-07-23T01:42:33;25.10;99.90
27128;DHT22;14660;49.008;8.390;2022-07-23T01:45:00;25.00;99.90
27128;DHT22;14660;49.008;8.390;2022-07-23T01:47:27;25.00;99.90
27128;DHT22;14660;49.008;8.390;2022-07-23T01:49:54;25.00;99.90
27128;DHT22;14660;49.008;8.390;2022-07-23T01:52:20;24.90;99.90
27128;DHT22;14660;49.008;8.390;2022-07-23T01:54:47;24.90;99.90
27128;DHT22;14660;49.008;8.390;2022-07-23T01:57:14;24.90;99.90
27128;DHT22;14660;49.008;8.390;2022-07-23T01:59:41;24.80;99.90
27128;DHT22;14660;49.008;8.390;2022-07-23T02:02:08;24.80;99.90
27128;DHT22;14660;49.008;8.390;2022-07-23T02:04:35;24.80;99.90
27128;DHT22;14660;49.008;8.390;2022-07-23T02:07:03;24.70;99.90
27128;DHT22;14660;49.008;8.390;2022-07-23T02:09:31;24.70;99.90
27128;DHT22;14660;49.008;8.390;2022-07-23T02:11:58;24.60;99.90
27128;DHT22;14660;49.008;8.390;2022-07-23T02:14:27;24.60;99.90
27128;DHT22;14660;49.008;8.390;2022-07-23T02:16:54;24.60;99.90
27128;DHT22;14660;49.008;8.390;2022-07-23T02:19:21;24.60;99.90
27128;DHT22;14660;49.008;8.390;2022-07-23T02:21:48;24.60;99.90
27128;DHT22;14660;49.008;8.390;2022-07-23T02:24:15;24.50;99.90
27128;DHT22;14660;49.008;8.390;2022-07-23T02:26:43;24.50;99.90
27128;DHT22;14660;49.008;8.390;2022-07-23T02:29:09;24.50;99.90
27128;DHT22;14660;49.008;8.390;2022-07-23T02:31:37;24.50;99.90
27128;DHT22;14660;49.008;8.390;2022-07-23T02:34:03;24.40;99.90
27128;DHT22;14660;49.008;8.390;2022-07-23T02:36:30;24.40;99.90
27128;DHT22;14660;49.008;8.390;2022-07-23T02:38:57;24.30;99.90
27128;DHT22;14660;49.008;8.390;2022-07-23T02:41:24;24.30;99.90
27128;DHT22;14660;49.008;8.390;2022-07-23T02:43:51;24.30;99.90
27128;DHT22;14660;49.008;8.390;2022-07-23T02:46:18;24.30;99.90
27128;DHT22;14660;49.008;8.390;2022-07-23T02:48:44;24.30;99.90
27128;DHT22;14660;49.008;8.390;2022-07-23T02:51:11;24.30;99.90
27128;DHT22;14660;49.008;8.390;2022-07-23T02:53:38;24.20;99.90
27128;DHT22;14660;49.008;8.390;2022-07-23T02:56:05;24.30;99.90
27128;DHT22;14660;49.008;8.390;2022-07-23T02:58:32;24.30;99.90
27128;DHT22;14660;49.008;8.390;2022-07-23T03:00:59;24.30;99.90
27128;DHT22;14660;49.008;8.390;2022-07-23T03:03:25;24.30;99.90
27128;DHT22;14660;49.008;8.390;2022-07-23T03:05:52;24.30;99.90
27128;DHT22;14660;49.008;8.390;2022-07-23T03:08:19;24.30;99.90
27128;DHT22;14660;49.008;8.390;2022-07-23T03:10:45;24.30;99.90
27128;DHT22;14660;49.008;8.390;2022-07-23T03:13:12;24.40;99.90
27128;DHT22;14660;49.008;8.390;2022-07-23T03:15:38;24.30;99.90
27128;DHT22;14660;49.008;8.390;2022-07-23T03:18:06;24.40;99.90
27128;DHT22;14660;49.008;8.390;2022-07-23T03:20:33;24.30;99.90
27128;DHT22;14660;49.008;8.390;2022-07-23T03:22:59;24.30;99.90
27128;DHT22;14660;49.008;8.390;2022-07-23T03:25:27;24.30;99.90
27128;DHT22;14660;49.008;8.390;2022-07-23T03:27:53;24.20;99.90
27128;DHT22;14660;49.008;8.390;2022-07-23T03:30:19;24.20;99.90
27128;DHT22;14660;49.008;8.390;2022-07-23T03:32:46;24.20;99.90
27128;DHT22;14660;49.008;8.390;2022-07-23T03:35:12;24.20;99.90
27128;DHT22;14660;49.008;8.390;2022-07-23T03:37:40;24.20;99.90
27128;DHT22;14660;49.008;8.390;2022-07-23T03:40:06;24.20;99.90
27128;DHT22;14660;49.008;8.390;2022-07-23T03:42:33;24.20;99.90
27128;DHT22;14660;49.008;8.390;2022-07-23T03:45:00;24.10;99.90
27128;DHT22;14660;49.008;8.390;2022-07-23T03:47:27;24.10;99.90
27128;DHT22;14660;49.008;8.390;2022-07-23T03:49:54;24.10;99.90
27128;DHT22;14660;49.008;8.390;2022-07-23T03:52:21;24.10;99.90
27128;DHT22;14660;49.008;8.390;2022-07-23T03:54:48;24.00;99.90
27128;DHT22;14660;49.008;8.390;2022-07-23T03:57:15;24.00;99.90
27128;DHT22;14660;49.008;8.390;2022-07-23T03:59:42;24.00;99.90
27128;DHT22;14660;49.008;8.390;2022-07-23T04:02:09;24.00;99.90
27128;DHT22;14660;49.008;8.390;2022-07-23T04:04:36;24.00;99.90
27128;DHT22;14660;49.008;8.390;2022-07-23T04:07:02;24.00;99.90
27128;DHT22;14660;49.008;8.390;2022-07-23T04:09:29;24.00;99.90
27128;DHT22;14660;49.008;8.390;2022-07-23T04:11:56;24.00;99.90
27128;DHT22;14660;49.008;8.390;2022-07-23T04:14:23;24.00;99.90
27128;DHT22;14660;49.008;8.390;2022-07-23T04:16:50;24.10;99.90
27128;DHT22;14660;49.008;8.390;2022-07-23T04:19:16;24.00;99.90
27128;DHT22;14660;49.008;8.390;2022-07-23T04:21:43;24.10;99.90
27128;DHT22;14660;49.008;8.390;2022-07-23T04:24:10;24.00;99.90
27128;DHT22;14660;49.008;8.390;2022-07-23T04:26:37;24.00;99.90
27128;DHT22;14660;49.008;8.390;2022-07-23T04:29:04;24.00;99.90
27128;DHT22;14660;49.008;8.390;2022-07-23T04:31:30;24.00;99.90
27128;DHT22;14660;49.008;8.390;2022-07-23T04:33:57;24.00;99.90
27128;DHT22;14660;49.008;8.390;2022-07-23T04:36:24;24.00;99.90
27128;DHT22;14660;49.008;8.390;2022-07-23T04:38:51;23.90;99.90
27128;DHT22;14660;49.008;8.390;2022-07-23T04:41:18;23.80;99.90
27128;DHT22;14660;49.008;8.390;2022-07-23T04:43:44;23.80;99.90
27128;DHT22;14660;49.008;8.390;2022-07-23T04:46:11;23.80;99.90
27128;DHT22;14660;49.008;8.390;2022-07-23T04:48:38;23.90;99.90
27128;DHT22;14660;49.008;8.390;2022-07-23T04:51:05;23.90;99.90
27128;DHT22;14660;49.008;8.390;2022-07-23T04:53:32;23.90;99.90
27128;DHT22;14660;49.008;8.390;2022-07-23T04:55:59;23.90;99.90
27128;DHT22;14660;49.008;8.390;2022-07-23T04:58:26;23.90;99.90
27128;DHT22;14660;49.008;8.390;2022-07-23T05:00:53;23.90;99.90
27128;DHT22;14660;49.008;8.390;2022-07-23T05:03:20;23.80;99.90
27128;DHT22;14660;49.008;8.390;2022-07-23T05:05:47;23.80;99.90
27128;DHT22;14660;49.008;8.390;2022-07-23T05:08:13;23.80;99.90
27128;DHT22;14660;49.008;8.390;2022-07-23T05:10:40;23.80;99.90
27128;DHT22;14660;49.008;8.390;2022-07-23T05:13:07;23.80;99.90
27128;DHT22;14660;49.008;8.390;2022-07-23T05:15:34;23.70;99.90
27128;DHT22;14660;49.008;8.390;2022-07-23T05:18:00;23.80;99.90
27128;DHT22;14660;49.008;8.390;2022-07-23T05:20:27;23.80;99.90
27128;DHT22;14660;49.008;8.390;2022-07-23T05:22:54;23.80;99.90
27128;DHT22;14660;49.008;8.390;2022-07-23T05:25:21;23.80;99.90
27128;DHT22;14660;49.008;8.390;2022-07-23T05:27:47;23.80;99.90
27128;DHT22;14660;49.008;8.390;2022-07-23T05:30:14;23.80;99.90
27128;DHT22;14660;49.008;8.390;2022-07-23T05:32:41;23.80;99.90
27128;DHT22;14660;49.008;8.390;2022-07-23T05:35:08;23.80;99.90
27128;DHT22;14660;49.008;8.390;2022-07-23T05:37:36;24.00;99.90
27128;DHT22;14660;49.008;8.390;2022-07-23T05:40:08;24.10;99.90
27128;DHT22;14660;49.008;8.390;2022-07-23T05:42:39;24.20;99.90
27128;DHT22;14660;49.008;8.390;2022-07-23T05:45:06;24.30;99.90
27128;DHT22;14660;49.008;8.390;2022-07-23T05:47:44;24.40;99.90
27128;DHT22;14660;49.008;8.390;2022-07-23T05:50:11;24.40;99.90
27128;DHT22;14660;49.008;8.390;2022-07-23T05:52:38;24.40;99.90
27128;DHT22;14660;49.008;8.390;2022-07-23T05:55:07;24.40;99.90
27128;DHT22;14660;49.008;8.390;2022-07-23T05:57:34;24.30;99.90
27128;DHT22;14660;49.008;8.390;2022-07-23T06:00:02;24.20;99.90
27128;DHT22;14660;49.008;8.390;2022-07-23T06:02:29;24.20;99.90
27128;DHT22;14660;49.008;8.390;2022-07-23T06:04:55;24.00;99.90
27128;DHT22;14660;49.008;8.390;2022-07-23T06:07:22;24.00;99.90
27128;DHT22;14660;49.008;8.390;2022-07-23T06:09:49;23.90;99.90
27128;DHT22;14660;49.008;8.390;2022-07-23T06:12:16;24.00;99.90
27128;DHT22;14660;49.008;8.390;2022-07-23T06:14:43;24.00;99.90
27128;DHT22;14660;49.008;8.390;2022-07-23T06:17:10;24.10;99.90
27128;DHT22;14660;49.008;8.390;2022-07-23T06:19:37;24.20;99.90
27128;DHT22;14660;49.008;8.390;2022-07-23T06:22:04;24.20;99.90
27128;DHT22;14660;49.008;8.390;2022-07-23T06:24:31;24.20;99.90
27128;DHT22;14660;49.008;8.390;2022-07-23T06:26:57;24.30;99.90
27128;DHT22;14660;49.008;8.390;2022-07-23T06:29:24;24.30;99.90
27128;DHT22;14660;49.008;8.390;2022-07-23T06:31:51;24.30;99.90
27128;DHT22;14660;49.008;8.390;2022-07-23T06:34:18;24.30;99.90
27128;DHT22;14660;49.008;8.390;2022-07-23T06:36:44;24.40;99.90
27128;DHT22;14660;49.008;8.390;2022-07-23T06:39:11;24.40;99.90
27128;DHT22;14660;49.008;8.390;2022-07-23T06:41:38;24.50;99.90
27128;DHT22;14660;49.008;8.390;2022-07-23T06:44:04;24.50;99.90
27128;DHT22;14660;49.008;8.390;2022-07-23T06:46:31;24.50;99.90
27128;DHT22;14660;49.008;8.390;2022-07-23T06:48:59;24.50;99.90
27128;DHT22;14660;49.008;8.390;2022-07-23T06:51:26;24.60;99.90
27128;DHT22;14660;49.008;8.390;2022-07-23T06:53:53;24.60;99.90
27128;DHT22;14660;49.008;8.390;2022-07-23T06:56:20;24.70;99.90
27128;DHT22;14660;49.008;8.390;2022-07-23T06:58:47;24.70;99.90
27128;DHT22;14660;49.008;8.390;2022-07-23T07:01:14;24.80;99.90
27128;DHT22;14660;49.008;8.390;2022-07-23T07:03:41;24.90;99.90
27128;DHT22;14660;49.008;8.390;2022-07-23T07:06:08;24.90;99.90
27128;DHT22;14660;49.008;8.390;2022-07-23T07:08:34;24.90;99.90
27128;DHT22;14660;49.008;8.390;2022-07-23T07:11:02;24.90;99.90
27128;DHT22;14660;49.008;8.390;2022-07-23T07:13:29;24.90;99.90
27128;DHT22;14660;49.008;8.390;2022-07-23T07:15:57;24.80;99.90
27128;DHT22;14660;49.008;8.390;2022-07-23T07:18:24;24.70;99.90
27128;DHT22;14660;49.008;8.390;2022-07-23T07:20:50;24.70;99.90
27128;DHT22;14660;49.008;8.390;2022-07-23T07:23:17;24.70;99.90
27128;DHT22;14660;49.008;8.390;2022-07-23T07:25:44;24.70;99.90
27128;DHT22;14660;49.008;8.390;2022-07-23T07:28:10;24.60;99.90
27128;DHT22;14660;49.008;8.390;2022-07-23T07:30:37;24.60;99.90
27128;DHT22;14660;49.008;8.390;2022-07-23T07:33:04;24.70;99.90
27128;DHT22;14660;49.008;8.390;2022-07-23T07:35:31;24.80;99.90
27128;DHT22;14660;49.008;8.390;2022-07-23T07:37:59;24.90;99.90
27128;DHT22;14660;49.008;8.390;2022-07-23T07:40:26;25.10;99.90
27128;DHT22;14660;49.008;8.390;2022-07-23T07:42:54;25.30;99.90
27128;DHT22;14660;49.008;8.390;2022-07-23T07:45:21;25.60;99.90
27128;DHT22;14660;49.008;8.390;2022-07-23T07:47:48;25.90;99.90
27128;DHT22;14660;49.008;8.390;2022-07-23T07:50:15;26.10;99.90
27128;DHT22;14660;49.008;8.390;2022-07-23T07:52:43;26.30;99.90
27128;DHT22;14660;49.008;8.390;2022-07-23T07:55:10;26.40;99.90
27128;DHT22;14660;49.008;8.390;2022-07-23T07:57:38;26.40;99.90
27128;DHT22;14660;49.008;8.390;2022-07-23T08:00:06;26.60;99.90
27128;DHT22;14660;49.008;8.390;2022-07-23T08:02:45;26.70;99.90
27128;DHT22;14660;49.008;8.390;2022-07-23T08:05:14;26.80;99.90
27128;DHT22;14660;49.008;8.390;2022-07-23T08:07:42;27.00;99.90
27128;DHT22;14660;49.008;8.390;2022-07-23T08:10:09;27.00;99.90
27128;DHT22;14660;49.008;8.390;2022-07-23T08:12:54;27.00;99.90
27128;DHT22;14660;49.008;8.390;2022-07-23T08:15:25;26.90;99.90
27128;DHT22;14660;49.008;8.390;2022-07-23T08:17:52;27.10;99.90
27128;DHT22;14660;49.008;8.390;2022-07-23T08:20:21;27.20;99.90
27128;DHT22;14660;49.008;8.390;2022-07-23T08:23:06;27.30;99.90
27128;DHT22;14660;49.008;8.390;2022-07-23T08:25:40;27.40;99.90
27128;DHT22;14660;49.008;8.390;2022-07-23T08:28:09;27.50;99.90
27128;DHT22;14660;49.008;8.390;2022-07-23T08:30:37;27.60;99.90
27128;DHT22;14660;49.008;8.390;2022-07-23T08:33:15;27.70;99.90
27128;DHT22;14660;49.008;8.390;2022-07-23T08:35:49;27.70;99.90
27128;DHT22;14660;49.008;8.390;2022-07-23T08:38:19;27.60;99.90
27128;DHT22;14660;49.008;8.390;2022-07-23T08:40:52;27.70;99.90
27128;DHT22;14660;49.008;8.390;2022-07-23T08:43:22;27.70;99.90
27128;DHT22;14660;49.008;8.390;2022-07-23T08:45:51;27.80;99.90
27128;DHT22;14660;49.008;8.390;2022-07-23T08:48:36;28.00;99.90
27128;DHT22;14660;49.008;8.390;2022-07-23T08:51:04;28.10;99.90
27128;DHT22;14660;49.008;8.390;2022-07-23T08:53:32;28.30;99.90
27128;DHT22;14660;49.008;8.390;2022-07-23T08:56:01;28.50;99.90
27128;DHT22;14660;49.008;8.390;2022-07-23T08:58:28;28.20;99.90
27128;DHT22;14660;49.008;8.390;2022-07-23T09:00:56;28.40;99.90
27128;DHT22;14660;49.008;8.390;2022-07-23T09:03:25;28.60;99.90
27128;DHT22;14660;49.008;8.390;2022-07-23T09:05:57;28.80;99.90
27128;DHT22;14660;49.008;8.390;2022-07-23T09:08:35;29.10;99.90
27128;DHT22;14660;49.008;8.390;2022-07-23T09:11:04;29.30;99.90
27128;DHT22;14660;49.008;8.390;2022-07-23T09:13:53;29.30;99.90
27128;DHT22;14660;49.008;8.390;2022-07-23T09:16:39;29.30;99.90
27128;DHT22;14660;49.008;8.390;2022-07-23T09:19:07;29.10;99.90
27128;DHT22;14660;49.008;8.390;2022-07-23T09:21:38;29.10;99.90
27128;DHT22;14660;49.008;8.390;2022-07-23T09:24:23;29.00;99.90
27128;DHT22;14660;49.008;8.390;2022-07-23T09:26:50;29.00;99.90
27128;DHT22;14660;49.008;8.390;2022-07-23T09:29:35;29.20;99.90
27128;DHT22;14660;49.008;8.390;2022-07-23T09:32:03;29.20;99.90
27128;DHT22;14660;49.008;8.390;2022-07-23T09:34:49;29.30;99.90
27128;DHT22;14660;49.008;8.390;2022-07-23T09:37:18;29.10;99.90
27128;DHT22;14660;49.008;8.390;2022-07-23T09:39:46;29.00;99.90
27128;DHT22;14660;49.008;8.390;2022-07-23T09:42:33;29.10;99.90
27128;DHT22;14660;49.008;8.390;2022-07-23T09:45:00;29.20;99.90
27128;DHT22;14660;49.008;8.390;2022-07-23T09:47:29;29.30;99.90
27128;DHT22;14660;49.008;8.390;2022-07-23T09:50:13;29.40;99.90
27128;DHT22;14660;49.008;8.390;2022-07-23T09:52:59;29.50;99.90
27128;DHT22;14660;49.008;8.390;2022-07-23T09:55:35;29.70;99.90
27128;DHT22;14660;49.008;8.390;2022-07-23T09:58:02;29.70;99.90
27128;DHT22;14660;49.008;8.390;2022-07-23T10:00:31;29.60;99.90
27128;DHT22;14660;49.008;8.390;2022-07-23T10:02:59;29.60;99.90
27128;DHT22;14660;49.008;8.390;2022-07-23T10:05:29;29.60;99.90
27128;DHT22;14660;49.008;8.390;2022-07-23T10:07:57;29.50;99.90
27128;DHT22;14660;49.008;8.390;2022-07-23T10:10:29;29.30;99.90
27128;DHT22;14660;49.008;8.390;2022-07-23T10:12:57;29.30;99.90
27128;DHT22;14660;49.008;8.390;2022-07-23T10:15:29;29.20;99.90
27128;DHT22;14660;49.008;8.390;2022-07-23T10:17:56;29.10;99.90
27128;DHT22;14660;49.008;8.390;2022-07-23T10:20:23;29.10;99.90
27128;DHT22;14660;49.008;8.390;2022-07-23T10:25:54;29.40;99.90
27128;DHT22;14660;49.008;8.390;2022-07-23T10:28:46;29.60;99.90
27128;DHT22;14660;49.008;8.390;2022-07-23T10:35:31;29.80;99.90
27128;DHT22;14660;49.008;8.390;2022-07-23T10:37:52;29.70;99.90
27128;DHT22;14660;49.008;8.390;2022-07-23T10:40:22;29.70;99.90
27128;DHT22;14660;49.008;8.390;2022-07-23T10:42:51;29.60;99.90
27128;DHT22;14660;49.008;8.390;2022-07-23T10:45:36;29.70;99.90
27128;DHT22;14660;49.008;8.390;2022-07-23T10:48:24;29.50;99.90
27128;DHT22;14660;49.008;8.390;2022-07-23T10:53:58;29.40;99.90
27128;DHT22;14660;49.008;8.390;2022-07-23T10:59:28;29.30;99.90
27128;DHT22;14660;49.008;8.390;2022-07-23T11:02:21;29.30;99.90
27128;DHT22;14660;49.008;8.390;2022-07-23T11:04:50;29.30;99.90
27128;DHT22;14660;49.008;8.390;2022-07-23T11:07:18;29.30;99.90
27128;DHT22;14660;49.008;8.390;2022-07-23T11:09:45;29.30;99.90
27128;DHT22;14660;49.008;8.390;2022-07-23T11:12:34;29.30;99.90
27128;DHT22;14660;49.008;8.390;2022-07-23T11:15:19;29.30;99.90
27128;DHT22;14660;49.008;8.390;2022-07-23T11:18:03;29.30;99.90
27128;DHT22;14660;49.008;8.390;2022-07-23T11:20:30;29.30;99.90
27128;DHT22;14660;49.008;8.390;2022-07-23T11:22:58;29.30;99.90
27128;DHT22;14660;49.008;8.390;2022-07-23T11:25:43;29.30;99.90
27128;DHT22;14660;49.008;8.390;2022-07-23T11:28:17;29.40;99.90
27128;DHT22;14660;49.008;8.390;2022-07-23T11:30:47;29.40;99.90
27128;DHT22;14660;49.008;8.390;2022-07-23T11:33:33;29.40;99.90
27128;DHT22;14660;49.008;8.390;2022-07-23T11:36:03;29.20;99.90
27128;DHT22;14660;49.008;8.390;2022-07-23T11:38:31;29.20;99.90
27128;DHT22;14660;49.008;8.390;2022-07-23T11:40:59;29.10;99.90
27128;DHT22;14660;49.008;8.390;2022-07-23T11:43:26;29.00;99.90
27128;DHT22;14660;49.008;8.390;2022-07-23T11:45:57;29.20;99.90
27128;DHT22;14660;49.008;8.390;2022-07-23T11:48:28;29.40;99.90
27128;DHT22;14660;49.008;8.390;2022-07-23T11:50:56;29.40;99.90
27128;DHT22;14660;49.008;8.390;2022-07-23T11:53:31;29.50;99.90
27128;DHT22;14660;49.008;8.390;2022-07-23T11:56:08;29.60;99.90
27128;DHT22;14660;49.008;8.390;2022-07-23T11:58:37;29.60;99.90
27128;DHT22;14660;49.008;8.390;2022-07-23T12:01:05;29.60;99.90
27128;DHT22;14660;49.008;8.390;2022-07-23T12:03:31;29.60;99.90
27128;DHT22;14660;49.008;8.390;2022-07-23T12:06:00;29.60;99.90
27128;DHT22;14660;49.008;8.390;2022-07-23T12:08:27;29.80;99.90
27128;DHT22;14660;49.008;8.390;2022-07-23T12:10:53;29.90;99.90
27128;DHT22;14660;49.008;8.390;2022-07-23T12:13:21;30.00;99.90
27128;DHT22;14660;49.008;8.390;2022-07-23T12:15:52;30.00;99.90
27128;DHT22;14660;49.008;8.390;2022-07-23T12:18:24;30.10;99.90
27128;DHT22;14660;49.008;8.390;2022-07-23T12:20:53;30.10;99.90
27128;DHT22;14660;49.008;8.390;2022-07-23T12:23:21;30.10;99.90
27128;DHT22;14660;49.008;8.390;2022-07-23T12:25:50;30.30;99.90
27128;DHT22;14660;49.008;8.390;2022-07-23T12:28:36;30.30;99.90
27128;DHT22;14660;49.008;8.390;2022-07-23T12:31:04;30.50;99.90
27128;DHT22;14660;49.008;8.390;2022-07-23T12:33:48;30.50;99.90
27128;DHT22;14660;49.008;8.390;2022-07-23T12:36:17;30.50;99.90
27128;DHT22;14660;49.008;8.390;2022-07-23T12:38:48;30.50;99.90
27128;DHT22;14660;49.008;8.390;2022-07-23T12:41:15;30.50;99.90
27128;DHT22;14660;49.008;8.390;2022-07-23T12:43:44;30.40;99.90
27128;DHT22;14660;49.008;8.390;2022-07-23T12:46:33;30.40;99.90
27128;DHT22;14660;49.008;8.390;2022-07-23T12:49:00;30.40;99.90
27128;DHT22;14660;49.008;8.390;2022-07-23T12:51:29;30.40;99.90
27128;DHT22;14660;49.008;8.390;2022-07-23T12:54:14;30.40;99.90
27128;DHT22;14660;49.008;8.390;2022-07-23T12:56:44;30.40;99.90
27128;DHT22;14660;49.008;8.390;2022-07-23T12:59:14;30.40;99.90
27128;DHT22;14660;49.008;8.390;2022-07-23T13:01:54;30.40;99.90
27128;DHT22;14660;49.008;8.390;2022-07-23T13:04:23;30.40;99.90
27128;DHT22;14660;49.008;8.390;2022-07-23T13:07:07;30.40;99.90
27128;DHT22;14660;49.008;8.390;2022-07-23T13:09:34;30.30;99.90
27128;DHT22;14660;49.008;8.390;2022-07-23T13:12:01;30.40;99.90
27128;DHT22;14660;49.008;8.390;2022-07-23T13:14:28;30.40;99.90
27128;DHT22;14660;49.008;8.390;2022-07-23T13:16:56;30.40;99.90
27128;DHT22;14660;49.008;8.390;2022-07-23T13:19:23;30.40;99.90
27128;DHT22;14660;49.008;8.390;2022-07-23T13:21:50;30.40;99.90
27128;DHT22;14660;49.008;8.390;2022-07-23T13:24:17;30.60;99.90
27128;DHT22;14660;49.008;8.390;2022-07-23T13:26:44;30.60;99.90
27128;DHT22;14660;49.008;8.390;2022-07-23T13:29:12;30.70;99.90
27128;DHT22;14660;49.008;8.390;2022-07-23T13:31:40;30.70;99.90
27128;DHT22;14660;49.008;8.390;2022-07-23T13:34:07;30.70;99.90
27128;DHT22;14660;49.008;8.390;2022-07-23T13:36:35;30.80;99.90
27128;DHT22;14660;49.008;8.390;2022-07-23T13:39:03;30.90;99.90
27128;DHT22;14660;49.008;8.390;2022-07-23T13:41:30;31.00;99.90
27128;DHT22;14660;49.008;8.390;2022-07-23T13:43:59;31.00;99.90
27128;DHT22;14660;49.008;8.390;2022-07-23T13:46:27;31.10;99.90
27128;DHT22;14660;49.008;8.390;2022-07-23T13:48:53;31.10;99.90
27128;DHT22;14660;49.008;8.390;2022-07-23T13:51:20;31.10;99.90
27128;DHT22;14660;49.008;8.390;2022-07-23T13:53:47;31.10;99.90
27128;DHT22;14660;49.008;8.390;2022-07-23T13:56:14;31.10;99.90
27128;DHT22;14660;49.008;8.390;2022-07-23T13:58:41;31.10;99.90
27128;DHT22;14660;49.008;8.390;2022-07-23T14:01:07;31.10;99.90
27128;DHT22;14660;49.008;8.390;2022-07-23T14:03:34;31.10;99.90
27128;DHT22;14660;49.008;8.390;2022-07-23T14:06:01;31.20;99.90
27128;DHT22;14660;49.008;8.390;2022-07-23T14:08:28;31.30;99.90
27128;DHT22;14660;49.008;8.390;2022-07-23T14:10:55;31.30;99.90
27128;DHT22;14660;49.008;8.390;2022-07-23T14:13:22;31.40;99.90
27128;DHT22;14660;49.008;8.390;2022-07-23T14:15:49;31.50;99.90
27128;DHT22;14660;49.008;8.390;2022-07-23T14:18:16;31.50;99.90
27128;DHT22;14660;49.008;8.390;2022-07-23T14:20:43;31.50;99.90
27128;DHT22;14660;49.008;8.390;2022-07-23T14:23:10;31.50;99.90
27128;DHT22;14660;49.008;8.390;2022-07-23T14:25:37;31.60;99.90
27128;DHT22;14660;49.008;8.390;2022-07-23T14:28:04;31.50;99.90
27128;DHT22;14660;49.008;8.390;2022-07-23T14:30:31;31.60;99.90
27128;DHT22;14660;49.008;8.390;2022-07-23T14:32:58;31.60;99.90
27128;DHT22;14660;49.008;8.390;2022-07-23T14:35:25;31.60;99.90
27128;DHT22;14660;49.008;8.390;2022-07-23T14:37:51;31.60;99.90
27128;DHT22;14660;49.008;8.390;2022-07-23T14:40:17;31.60;99.90
27128;DHT22;14660;49.008;8.390;2022-07-23T14:42:44;31.40;99.90
27128;DHT22;14660;49.008;8.390;2022-07-23T14:45:11;31.40;99.90
27128;DHT22;14660;49.008;8.390;2022-07-23T14:47:37;31.30;99.90
27128;DHT22;14660;49.008;8.390;2022-07-23T14:50:04;31.30;99.90
27128;DHT22;14660;49.008;8.390;2022-07-23T14:52:31;31.10;99.90
27128;DHT22;14660;49.008;8.390;2022-07-23T14:54:58;30.90;99.90
27128;DHT22;14660;49.008;8.390;2022-07-23T14:57:25;30.80;99.90
27128;DHT22;14660;49.008;8.390;2022-07-23T14:59:52;30.80;99.90
27128;DHT22;14660;49.008;8.390;2022-07-23T15:02:19;30.70;99.90
27128;DHT22;14660;49.008;8.390;2022-07-23T15:04:45;30.70;99.90
27128;DHT22;14660;49.008;8.390;2022-07-23T15:07:12;30.60;99.90
27128;DHT22;14660;49.008;8.390;2022-07-23T15:09:39;30.50;99.90
27128;DHT22;14660;49.008;8.390;2022-07-23T15:12:06;30.50;99.90
27128;DHT22;14660;49.008;8.390;2022-07-23T15:14:33;30.60;99.90
27128;DHT22;14660;49.008;8.390;2022-07-23T15:17:00;30.60;99.90
27128;DHT22;14660;49.008;8.390;2022-07-23T15:19:27;30.50;99.90
27128;DHT22;14660;49.008;8.390;2022-07-23T15:21:53;30.40;99.90
27128;DHT22;14660;49.008;8.390;2022-07-23T15:24:20;30.40;99.90
27128;DHT22;14660;49.008;8.390;2022-07-23T15:26:47;30.40;99.90
27128;DHT22;14660;49.008;8.390;2022-07-23T15:29:13;30.30;99.90
27128;DHT22;14660;49.008;8.390;2022-07-23T15:31:40;30.30;99.90
27128;DHT22;14660;49.008;8.390;2022-07-23T15:34:07;30.30;99.90
27128;DHT22;14660;49.008;8.390;2022-07-23T15:36:34;30.40;99.90
27128;DHT22;14660;49.008;8.390;2022-07-23T15:39:01;30.30;99.90
27128;DHT22;14660;49.008;8.390;2022-07-23T15:41:28;30.30;99.90
27128;DHT22;14660;49.008;8.390;2022-07-23T15:43:55;30.10;99.90
27128;DHT22;14660;49.008;8.390;2022-07-23T15:46:22;29.80;99.90
27128;DHT22;14660;49.008;8.390;2022-07-23T15:48:49;29.70;99.90
27128;DHT22;14660;49.008;8.390;2022-07-23T15:51:16;29.60;99.90
27128;DHT22;14660;49.008;8.390;2022-07-23T15:53:43;29.40;99.90